CheckWX is a tool to help pilots better visualize weather data.  It is not intended as a substitute for an official pre-flight weather briefing.

14:21:35 UTC

KALB METAR
Albany International Airport
Albany, New York, USA
Current

2 hours ago

KALB 161251Z 16007KT 10SM SCT150 SCT250 22/14 A3008 RMK AO2 SLP183 T02220144 $
Observed
Jul-16 @ 12:51 UTC
Wind
  • 160° at 7 KTS
Visibility
10 SM
Flight Rules
VFR
Cloud Levels
  • Scattered at 15,000' AGL
  • Scattered at 25,000' AGL
Temperature
22°C / 72°F
Dewpoint
14°C / 57°F
Humidity
61%
Altimeter
30.08" Hg
Pressure
1018.62 hPa
Previous

3 hours ago

KALB 161151Z 20003KT 10SM SCT150 BKN250 20/16 A3008 RMK AO2 SLP183 T02000156 10200 20156 50004
Observed
Jul-16 @ 11:51 UTC
Wind
  • 200° at 3 KTS
Visibility
10 SM
Flight Rules
VFR
Cloud Levels
  • Scattered at 15,000' AGL
  • Broken at 25,000' AGL
Temperature
20°C / 68°F
Dewpoint
16°C / 61°F
Humidity
78%
Altimeter
30.08" Hg
Pressure
1018.62 hPa
Previous

4 hours ago

KALB 161051Z 00000KT 10SM BKN130 BKN250 18/15 A3008 RMK AO2 SLP184 T01830150
Observed
Jul-16 @ 10:51 UTC
Visibility
10 SM
Flight Rules
VFR
Cloud Levels
  • Broken at 13,000' AGL
  • Broken at 25,000' AGL
Temperature
18°C / 64°F
Dewpoint
15°C / 59°F
Humidity
83%
Altimeter
30.08" Hg
Pressure
1018.62 hPa